Time;durP1;ratioP1;P1;durP2;ratioP2;P2;SDS_P1;SDS_P2;PMS_P1;PMS_P2;Temp;Humidity;BMP_temperature;BMP_pressure;BME280_temperature;BME280_humidity;BME280_pressure;Samples;Min_cycle;Max_cycle;Signal;HPM_P1;HPM_P2
2022/03/03 00:01:51;;;;;;;64.80;43.67;;;;;;;;;;5035005;28;20500;-86
2022/03/03 00:04:19;;;;;;;60.95;43.53;;;;;;;;;;5034915;28;20400;-85
2022/03/03 00:06:46;;;;;;;60.08;42.83;;;;;;;;;;5035786;28;20403;-86
2022/03/03 00:09:13;;;;;;;64.28;43.30;;;;;;;;;;5032063;28;20449;-85
2022/03/03 00:11:40;;;;;;;58.85;42.50;;;;;;;;;;5036350;28;20764;-85
2022/03/03 00:14:09;;;;;;;64.18;43.42;;;;;;;;;;5035855;28;20415;-85
2022/03/03 00:16:35;;;;;;;60.40;43.37;;;;;;;;;;5032097;28;20397;-85
2022/03/03 00:19:03;;;;;;;64.10;43.10;;;;;;;;;;5036331;28;20409;-83
2022/03/03 00:21:30;;;;;;;64.78;44.65;;;;;;;;;;5035177;28;20827;-86
2022/03/03 00:23:57;;;;;;;58.78;42.25;;;;;;;;;;5035527;28;20409;-85
2022/03/03 00:26:24;;;;;;;60.85;42.72;;;;;;;;;;5035155;28;20401;-85
2022/03/03 00:28:51;;;;;;;59.63;43.23;;;;;;;;;;5035847;28;20954;-84
2022/03/03 00:31:19;;;;;;;62.92;42.50;;;;;;;;;;5035168;28;20400;-85
2022/03/03 00:33:46;;;;;;;64.85;44.38;;;;;;;;;;5035776;28;20407;-86
2022/03/03 00:36:13;;;;;;;67.45;45.50;;;;;;;;;;5031569;28;20427;-86
2022/03/03 00:38:40;;;;;;;68.88;47.05;;;;;;;;;;5037131;28;20802;-85
2022/03/03 00:41:07;;;;;;;64.57;44.28;;;;;;;;;;5036228;28;20466;-86
2022/03/03 00:43:34;;;;;;;65.97;44.55;;;;;;;;;;5036744;28;20397;-86
2022/03/03 00:46:01;;;;;;;63.08;44.17;;;;;;;;;;5036340;28;20409;-85
2022/03/03 00:48:29;;;;;;;64.63;43.80;;;;;;;;;;5031095;28;20526;-85
2022/03/03 00:50:56;;;;;;;58.10;43.00;;;;;;;;;;5035662;28;20459;-86
2022/03/03 00:53:23;;;;;;;62.90;44.58;;;;;;;;;;5033797;28;20900;-85
2022/03/03 00:55:50;;;;;;;63.10;42.97;;;;;;;;;;5036083;28;20541;-86
2022/03/03 00:58:17;;;;;;;61.53;43.80;;;;;;;;;;5035832;28;20500;-84
2022/03/03 01:00:44;;;;;;;64.28;42.92;;;;;;;;;;5031976;28;20407;-86
2022/03/03 01:03:12;;;;;;;61.92;42.95;;;;;;;;;;5034699;28;20437;-86
2022/03/03 01:05:40;;;;;;;61.90;43.95;;;;;;;;;;5037176;28;20464;-84
2022/03/03 01:08:10;;;;;;;62.28;43.72;;;;;;;;;;5040613;28;20463;-84
2022/03/03 01:10:37;;;;;;;61.10;43.27;;;;;;;;;;5032032;28;20496;-86
2022/03/03 01:13:04;;;;;;;62.38;43.53;;;;;;;;;;5035869;28;20408;-84
2022/03/03 01:15:31;;;;;;;65.25;44.40;;;;;;;;;;5035808;28;20432;-84
2022/03/03 01:17:58;;;;;;;62.92;44.30;;;;;;;;;;5035239;28;21012;-86
2022/03/03 01:20:27;;;;;;;63.00;43.28;;;;;;;;;;5030461;28;20467;-85
2022/03/03 01:22:55;;;;;;;63.53;44.20;;;;;;;;;;5035241;28;20409;-86
2022/03/03 01:25:22;;;;;;;63.83;44.15;;;;;;;;;;5035022;28;21296;-84
2022/03/03 01:27:49;;;;;;;63.55;43.95;;;;;;;;;;5035172;28;20407;-85
2022/03/03 01:30:16;;;;;;;62.90;43.60;;;;;;;;;;5035281;28;20887;-86
2022/03/03 01:32:43;;;;;;;62.85;43.90;;;;;;;;;;5030885;28;20403;-85
2022/03/03 01:35:10;;;;;;;61.63;43.55;;;;;;;;;;5035302;28;20475;-87
2022/03/03 01:37:37;;;;;;;61.58;43.25;;;;;;;;;;5036270;28;20411;-84
2022/03/03 01:40:07;;;;;;;62.00;43.63;;;;;;;;;;5036386;28;20479;-85
2022/03/03 01:42:34;;;;;;;61.58;43.28;;;;;;;;;;5035150;28;20742;-85
2022/03/03 01:45:01;;;;;;;66.73;44.27;;;;;;;;;;5034929;28;20532;-85
2022/03/03 01:47:28;;;;;;;61.13;43.10;;;;;;;;;;5035448;28;20491;-85
2022/03/03 01:49:57;;;;;;;64.32;43.35;;;;;;;;;;5035492;28;20881;-86
2022/03/03 01:52:24;;;;;;;61.97;43.42;;;;;;;;;;5035215;28;20495;-85
2022/03/03 01:54:52;;;;;;;60.53;42.38;;;;;;;;;;5033609;28;20407;-85
2022/03/03 01:57:22;;;;;;;65.15;43.50;;;;;;;;;;5034783;28;20907;-85
2022/03/03 01:59:49;;;;;;;62.80;43.58;;;;;;;;;;5033618;28;20845;-87
2022/03/03 02:02:16;;;;;;;60.07;42.63;;;;;;;;;;5035432;28;20415;-84
2022/03/03 02:04:43;;;;;;;60.60;42.28;;;;;;;;;;5031026;28;20469;-86
2022/03/03 02:07:11;;;;;;;60.13;43.03;;;;;;;;;;5036131;28;20439;-84
2022/03/03 02:09:38;;;;;;;61.92;42.80;;;;;;;;;;5036062;28;20431;-87
2022/03/03 02:12:06;;;;;;;61.20;42.25;;;;;;;;;;5036021;28;20470;-86
2022/03/03 02:14:42;;;;;;;59.75;42.03;;;;;;;;;;5035973;28;20420;-85
2022/03/03 02:17:09;;;;;;;58.00;41.25;;;;;;;;;;5036827;28;20494;-86
2022/03/03 02:19:36;;;;;;;59.03;40.88;;;;;;;;;;5039384;28;20418;-86
2022/03/03 02:22:06;;;;;;;59.45;40.80;;;;;;;;;;5039490;28;20497;-86
2022/03/03 02:24:32;;;;;;;59.15;41.78;;;;;;;;;;5038397;28;20924;-85
2022/03/03 02:27:02;;;;;;;59.30;41.07;;;;;;;;;;5039842;28;20498;-85
2022/03/03 02:29:29;;;;;;;61.58;41.45;;;;;;;;;;5038629;28;20416;-85
2022/03/03 02:31:56;;;;;;;62.45;42.03;;;;;;;;;;5029786;28;20459;-85
2022/03/03 02:34:23;;;;;;;60.00;41.35;;;;;;;;;;5039482;28;20419;-84
2022/03/03 02:36:50;;;;;;;55.67;41.08;;;;;;;;;;5039615;28;20407;-86
2022/03/03 02:39:18;;;;;;;62.40;41.13;;;;;;;;;;5038989;28;20395;-85
2022/03/03 02:41:45;;;;;;;61.92;40.92;;;;;;;;;;5039432;28;21170;-85
2022/03/03 02:44:12;;;;;;;55.67;39.30;;;;;;;;;;5032266;28;20436;-85
2022/03/03 02:46:39;;;;;;;56.47;39.90;;;;;;;;;;5033332;28;20424;-86
2022/03/03 02:49:06;;;;;;;56.15;39.92;;;;;;;;;;5039443;28;20405;-83
2022/03/03 02:51:33;;;;;;;58.15;39.80;;;;;;;;;;5039686;28;20405;-84
2022/03/03 02:54:00;;;;;;;55.13;38.85;;;;;;;;;;5037151;28;20405;-86
2022/03/03 02:56:29;;;;;;;54.45;38.42;;;;;;;;;;5038448;28;20440;-86
2022/03/03 02:58:54;;;;;;;56.53;39.17;;;;;;;;;;5032225;28;20452;-85
2022/03/03 03:01:21;;;;;;;55.30;38.47;;;;;;;;;;5038383;28;20777;-85
2022/03/03 03:03:48;;;;;;;55.70;38.38;;;;;;;;;;5035238;28;20401;-87
2022/03/03 03:06:15;;;;;;;52.22;35.72;;;;;;;;;;5039198;28;20413;-85
2022/03/03 03:08:42;;;;;;;53.15;36.08;;;;;;;;;;5035837;28;20405;-86
2022/03/03 03:11:09;;;;;;;49.17;36.33;;;;;;;;;;5035464;28;20425;-83
2022/03/03 03:13:37;;;;;;;55.65;37.55;;;;;;;;;;5039897;28;21172;-87
2022/03/03 03:16:05;;;;;;;53.50;37.72;;;;;;;;;;5033656;28;20425;-85
2022/03/03 03:18:32;;;;;;;54.13;37.47;;;;;;;;;;5036716;28;20404;-87
2022/03/03 03:20:58;;;;;;;57.50;38.15;;;;;;;;;;5035573;28;20409;-85
2022/03/03 03:23:25;;;;;;;54.90;38.50;;;;;;;;;;5037014;28;20415;-85
2022/03/03 03:25:53;;;;;;;58.28;38.70;;;;;;;;;;5036289;28;20401;-85
2022/03/03 03:28:21;;;;;;;53.97;38.50;;;;;;;;;;5037111;28;20415;-85
2022/03/03 03:30:49;;;;;;;56.25;38.95;;;;;;;;;;5035337;28;20406;-86
2022/03/03 03:33:16;;;;;;;57.40;40.17;;;;;;;;;;5034520;28;20965;-85
2022/03/03 03:35:43;;;;;;;57.38;39.55;;;;;;;;;;5035718;28;20940;-85
2022/03/03 03:38:10;;;;;;;62.72;41.88;;;;;;;;;;5034747;28;20401;-86
2022/03/03 03:40:37;;;;;;;64.43;42.45;;;;;;;;;;5037336;28;20760;-85
2022/03/03 03:43:04;;;;;;;61.50;42.33;;;;;;;;;;5035328;28;20407;-84
2022/03/03 03:45:31;;;;;;;57.55;40.53;;;;;;;;;;5037249;28;20676;-85
2022/03/03 03:47:59;;;;;;;58.03;41.33;;;;;;;;;;5037479;28;20446;-86
2022/03/03 03:50:26;;;;;;;60.85;41.38;;;;;;;;;;5037010;28;21084;-86
2022/03/03 03:52:53;;;;;;;58.73;41.30;;;;;;;;;;5037883;28;20412;-86
2022/03/03 03:55:20;;;;;;;62.50;41.33;;;;;;;;;;5035470;28;20416;-87
2022/03/03 03:57:47;;;;;;;60.05;40.42;;;;;;;;;;5035700;28;20404;-84
2022/03/03 04:00:15;;;;;;;60.58;41.70;;;;;;;;;;5044211;28;20437;-85
2022/03/03 04:02:43;;;;;;;60.05;40.53;;;;;;;;;;5032348;28;20875;-84
2022/03/03 04:05:13;;;;;;;59.67;40.15;;;;;;;;;;5052878;28;20409;-87
2022/03/03 04:07:41;;;;;;;59.63;40.70;;;;;;;;;;5054498;28;20407;-85
2022/03/03 04:10:08;;;;;;;60.60;40.83;;;;;;;;;;5035459;28;20422;-85
2022/03/03 04:12:35;;;;;;;58.33;39.72;;;;;;;;;;5034569;28;20468;-86
2022/03/03 04:15:02;;;;;;;60.72;40.00;;;;;;;;;;5036547;28;20897;-85
2022/03/03 04:17:29;;;;;;;56.55;39.63;;;;;;;;;;5035783;28;20510;-86
2022/03/03 04:19:56;;;;;;;59.97;40.70;;;;;;;;;;5035585;28;20793;-87
2022/03/03 04:22:24;;;;;;;55.67;38.63;;;;;;;;;;5036491;28;20410;-86
2022/03/03 04:24:51;;;;;;;58.72;40.90;;;;;;;;;;5035089;28;20413;-86
2022/03/03 04:27:18;;;;;;;57.67;39.38;;;;;;;;;;5037302;28;20457;-84
2022/03/03 04:29:45;;;;;;;57.00;38.72;;;;;;;;;;5038445;28;20407;-85
2022/03/03 04:32:12;;;;;;;56.63;38.92;;;;;;;;;;5029763;28;20417;-86
2022/03/03 04:34:39;;;;;;;57.30;38.90;;;;;;;;;;5037354;28;20407;-85
2022/03/03 04:37:06;;;;;;;57.13;38.45;;;;;;;;;;5037078;28;20489;-85
2022/03/03 04:39:35;;;;;;;56.70;39.30;;;;;;;;;;5035211;28;20407;-84
2022/03/03 04:42:02;;;;;;;59.05;39.97;;;;;;;;;;5036575;28;20785;-87
2022/03/03 04:44:28;;;;;;;53.65;38.72;;;;;;;;;;5035946;28;20399;-87
2022/03/03 04:46:55;;;;;;;54.92;38.72;;;;;;;;;;5035001;28;20396;-87
2022/03/03 04:49:22;;;;;;;56.15;38.35;;;;;;;;;;5036622;28;20460;-87
2022/03/03 04:51:49;;;;;;;58.53;40.40;;;;;;;;;;5033928;28;20410;-86
2022/03/03 04:54:18;;;;;;;58.53;40.13;;;;;;;;;;5037401;28;20483;-87
2022/03/03 04:56:47;;;;;;;58.22;39.53;;;;;;;;;;5034140;28;20427;-87
2022/03/03 04:59:13;;;;;;;58.92;40.30;;;;;;;;;;5029513;28;20404;-87
2022/03/03 05:01:40;;;;;;;56.40;39.65;;;;;;;;;;5036458;28;20399;-87
2022/03/03 05:04:07;;;;;;;60.50;40.85;;;;;;;;;;5032300;28;20443;-86
2022/03/03 05:06:34;;;;;;;58.97;39.30;;;;;;;;;;5030713;28;20401;-87
2022/03/03 05:09:01;;;;;;;58.63;40.30;;;;;;;;;;5029753;28;20405;-87
2022/03/03 05:11:28;;;;;;;59.38;40.78;;;;;;;;;;5027634;28;20408;-85
2022/03/03 05:13:56;;;;;;;57.35;38.90;;;;;;;;;;5027325;28;20398;-87
2022/03/03 05:16:23;;;;;;;55.83;39.65;;;;;;;;;;5030161;28;20421;-86
2022/03/03 05:18:50;;;;;;;54.95;39.88;;;;;;;;;;5027410;28;20397;-87
2022/03/03 05:21:17;;;;;;;59.83;40.22;;;;;;;;;;5026487;28;20401;-86
2022/03/03 05:23:44;;;;;;;55.80;39.07;;;;;;;;;;5025674;28;20413;-87
2022/03/03 05:26:11;;;;;;;57.40;40.00;;;;;;;;;;5026927;28;20410;-86
2022/03/03 05:28:37;;;;;;;55.13;38.92;;;;;;;;;;5027359;28;20466;-87
2022/03/03 05:31:06;;;;;;;56.55;40.85;;;;;;;;;;5029097;28;20463;-87
2022/03/03 05:33:34;;;;;;;57.42;40.13;;;;;;;;;;5027586;28;20393;-86
2022/03/03 05:36:04;;;;;;;61.25;41.13;;;;;;;;;;5025907;28;20421;-87
2022/03/03 05:38:33;;;;;;;61.22;42.15;;;;;;;;;;5024147;28;20401;-86
2022/03/03 05:41:00;;;;;;;59.42;41.95;;;;;;;;;;5024888;28;20439;-86
2022/03/03 05:43:27;;;;;;;64.20;42.33;;;;;;;;;;5026768;28;20405;-86
2022/03/03 05:45:55;;;;;;;58.45;40.40;;;;;;;;;;5026683;28;20405;-85
2022/03/03 05:48:25;;;;;;;59.23;39.63;;;;;;;;;;5025844;28;20397;-86
2022/03/03 05:50:52;;;;;;;53.90;37.90;;;;;;;;;;5027325;28;20674;-86
2022/03/03 05:53:19;;;;;;;57.20;39.20;;;;;;;;;;5028098;28;20405;-87
2022/03/03 05:55:50;;;;;;;56.47;38.33;;;;;;;;;;5031078;28;20495;-85
2022/03/03 05:58:19;;;;;;;56.35;36.83;;;;;;;;;;5029580;28;20504;-86
2022/03/03 06:00:47;;;;;;;55.40;36.63;;;;;;;;;;5030268;28;20409;-86
2022/03/03 06:03:16;;;;;;;55.05;37.65;;;;;;;;;;5030035;28;20417;-86
2022/03/03 06:05:50;;;;;;;53.50;36.17;;;;;;;;;;5029590;28;20405;-86
2022/03/03 06:08:20;;;;;;;52.50;35.65;;;;;;;;;;5027182;28;20523;-87
2022/03/03 06:10:51;;;;;;;53.38;35.65;;;;;;;;;;5028302;28;20416;-84
2022/03/03 06:13:23;;;;;;;50.85;35.17;;;;;;;;;;5029564;28;20417;-85
2022/03/03 06:15:50;;;;;;;51.05;35.03;;;;;;;;;;5026451;28;20939;-85
2022/03/03 06:18:20;;;;;;;52.27;34.63;;;;;;;;;;5030762;28;20909;-83
2022/03/03 06:20:48;;;;;;;53.22;34.13;;;;;;;;;;5029610;28;20409;-87
2022/03/03 06:23:15;;;;;;;46.50;32.83;;;;;;;;;;5028349;28;20410;-85
2022/03/03 06:25:43;;;;;;;47.03;33.03;;;;;;;;;;5028906;28;20409;-85
2022/03/03 06:28:10;;;;;;;47.95;33.42;;;;;;;;;;5028541;28;20410;-84
2022/03/03 06:30:37;;;;;;;49.05;33.30;;;;;;;;;;5029249;28;20412;-82
2022/03/03 06:33:04;;;;;;;48.13;33.67;;;;;;;;;;5028339;28;20905;-86
2022/03/03 06:35:36;;;;;;;54.58;36.53;;;;;;;;;;5028819;28;20436;-86
2022/03/03 06:38:08;;;;;;;58.00;37.88;;;;;;;;;;5029910;28;20421;-87
2022/03/03 06:40:36;;;;;;;58.33;38.05;;;;;;;;;;5032269;28;20408;-87
2022/03/03 06:43:03;;;;;;;57.92;38.08;;;;;;;;;;5029985;28;20483;-87
2022/03/03 06:45:31;;;;;;;59.20;38.25;;;;;;;;;;5031825;28;21338;-91
2022/03/03 06:48:01;;;;;;;59.83;39.50;;;;;;;;;;5031350;28;21350;-89
2022/03/03 06:50:29;;;;;;;58.85;37.72;;;;;;;;;;5032096;28;20475;-88
2022/03/03 06:52:56;;;;;;;53.63;36.17;;;;;;;;;;5029935;28;20429;-85
2022/03/03 06:55:26;;;;;;;55.65;36.00;;;;;;;;;;5030079;28;20404;-85
2022/03/03 06:57:56;;;;;;;57.25;36.33;;;;;;;;;;5029382;28;20406;-84
2022/03/03 07:00:24;;;;;;;52.53;35.38;;;;;;;;;;5050466;28;20421;-83
2022/03/03 07:02:52;;;;;;;54.95;36.17;;;;;;;;;;5036106;28;20817;-84
2022/03/03 07:05:20;;;;;;;67.22;37.65;;;;;;;;;;5031198;28;20520;-86
2022/03/03 07:07:48;;;;;;;61.22;38.80;;;;;;;;;;5028216;28;20405;-85
2022/03/03 07:10:19;;;;;;;57.65;36.78;;;;;;;;;;5027483;28;20397;-85
2022/03/03 07:12:50;;;;;;;56.42;36.10;;;;;;;;;;5027868;28;20463;-86
2022/03/03 07:15:17;;;;;;;52.95;35.85;;;;;;;;;;5032214;28;20396;-87
2022/03/03 07:17:49;;;;;;;53.40;34.93;;;;;;;;;;5026434;28;20749;-86
2022/03/03 07:20:19;;;;;;;47.25;34.95;;;;;;;;;;5027446;28;20492;-86
2022/03/03 07:23:01;;;;;;;52.88;36.00;;;;;;;;;;5028772;28;20478;-86
2022/03/03 07:25:38;;;;;;;55.25;35.83;;;;;;;;;;5024657;28;21104;-86
2022/03/03 07:28:07;;;;;;;49.15;33.90;;;;;;;;;;5027845;28;20881;-85
2022/03/03 07:30:40;;;;;;;52.90;36.08;;;;;;;;;;5028740;28;20405;-83
2022/03/03 07:33:08;;;;;;;51.92;34.10;;;;;;;;;;5028884;28;20417;-86
2022/03/03 07:35:36;;;;;;;50.60;34.22;;;;;;;;;;5028905;28;20397;-83
2022/03/03 07:38:13;;;;;;;50.50;34.83;;;;;;;;;;5029264;28;20945;-84
2022/03/03 07:40:41;;;;;;;47.03;33.43;;;;;;;;;;5029435;28;20495;-83
2022/03/03 07:43:10;;;;;;;51.28;32.85;;;;;;;;;;5029476;28;20835;-83
2022/03/03 07:45:37;;;;;;;45.30;32.05;;;;;;;;;;5029338;28;20401;-83
2022/03/03 07:48:04;;;;;;;48.53;32.80;;;;;;;;;;5029082;28;20421;-85
2022/03/03 07:50:31;;;;;;;45.65;31.35;;;;;;;;;;5029094;28;20918;-83
2022/03/03 07:52:58;;;;;;;44.90;30.60;;;;;;;;;;5028678;28;20455;-83
2022/03/03 07:55:26;;;;;;;44.90;31.90;;;;;;;;;;5028638;28;20913;-86
2022/03/03 07:57:58;;;;;;;46.92;31.83;;;;;;;;;;5026532;28;20425;-85
2022/03/03 08:00:29;;;;;;;45.38;31.50;;;;;;;;;;5025831;28;20417;-82
2022/03/03 08:02:59;;;;;;;50.08;32.28;;;;;;;;;;5027976;28;20432;-82
2022/03/03 08:05:28;;;;;;;45.50;31.20;;;;;;;;;;5029925;28;20429;-83
2022/03/03 08:07:57;;;;;;;47.35;33.47;;;;;;;;;;5029714;28;20417;-74
2022/03/03 08:10:26;;;;;;;49.50;33.23;;;;;;;;;;5029009;28;20848;-75
2022/03/03 08:12:56;;;;;;;46.45;31.65;;;;;;;;;;5029806;28;20397;-75
2022/03/03 08:15:24;;;;;;;51.80;33.65;;;;;;;;;;5029029;28;20484;-76
2022/03/03 08:17:54;;;;;;;50.90;34.93;;;;;;;;;;5028164;28;20510;-75
2022/03/03 08:20:22;;;;;;;50.35;33.70;;;;;;;;;;5028831;28;20452;-75
2022/03/03 08:22:49;;;;;;;48.78;32.22;;;;;;;;;;5025197;28;20397;-75
2022/03/03 08:25:17;;;;;;;48.28;33.53;;;;;;;;;;5024780;28;20421;-77
2022/03/03 08:27:54;;;;;;;46.00;31.58;;;;;;;;;;5031678;28;20413;-89
2022/03/03 08:30:23;;;;;;;48.05;33.33;;;;;;;;;;5027386;28;20912;-89
2022/03/03 08:33:00;;;;;;;46.80;32.55;;;;;;;;;;5025254;28;20409;-90
2022/03/03 08:35:30;;;;;;;47.05;31.98;;;;;;;;;;5026237;28;20416;-88
2022/03/03 08:38:05;;;;;;;45.08;32.63;;;;;;;;;;5028249;28;20428;-89
2022/03/03 08:40:32;;;;;;;45.70;31.73;;;;;;;;;;5031577;28;20455;-90
2022/03/03 08:43:03;;;;;;;47.97;30.37;;;;;;;;;;5029001;28;20413;-89
2022/03/03 08:45:34;;;;;;;46.42;30.27;;;;;;;;;;5033281;28;20485;-90
2022/03/03 08:48:07;;;;;;;41.58;29.40;;;;;;;;;;5027537;28;20405;-89
2022/03/03 08:50:37;;;;;;;45.80;29.65;;;;;;;;;;5027465;28;20420;-90
2022/03/03 08:53:05;;;;;;;41.78;29.38;;;;;;;;;;5034035;28;20397;-90
2022/03/03 08:55:33;;;;;;;43.75;29.42;;;;;;;;;;5036989;28;20413;-89
2022/03/03 08:58:01;;;;;;;44.47;28.95;;;;;;;;;;5031130;28;20422;-89
2022/03/03 09:00:28;;;;;;;41.28;29.20;;;;;;;;;;5035992;28;20413;-89
2022/03/03 09:02:55;;;;;;;45.13;29.63;;;;;;;;;;5027493;28;20400;-90
2022/03/03 09:05:24;;;;;;;44.42;28.42;;;;;;;;;;5027023;28;20420;-89
2022/03/03 09:07:51;;;;;;;42.92;27.65;;;;;;;;;;5028086;28;20409;-89
2022/03/03 09:10:18;;;;;;;41.95;29.23;;;;;;;;;;5026565;28;20813;-89
2022/03/03 09:12:45;;;;;;;44.73;28.97;;;;;;;;;;5028089;28;20434;-91
2022/03/03 09:15:15;;;;;;;46.10;29.30;;;;;;;;;;5033946;28;20408;-90
2022/03/03 09:17:42;;;;;;;48.03;29.83;;;;;;;;;;5028357;28;20504;-88
2022/03/03 09:20:13;;;;;;;46.63;29.10;;;;;;;;;;5027267;28;20410;-90
2022/03/03 09:22:42;;;;;;;45.63;29.20;;;;;;;;;;5029821;28;20404;-89
2022/03/03 09:25:10;;;;;;;46.20;29.27;;;;;;;;;;5026702;28;20755;-89
2022/03/03 09:27:37;;;;;;;46.08;30.35;;;;;;;;;;5027173;28;20455;-90
2022/03/03 09:30:04;;;;;;;44.70;29.77;;;;;;;;;;5026536;28;20809;-90
2022/03/03 09:32:34;;;;;;;48.50;30.25;;;;;;;;;;5028802;28;20474;-91
2022/03/03 09:35:01;;;;;;;46.15;30.05;;;;;;;;;;5027713;28;20437;-90
2022/03/03 09:37:29;;;;;;;49.92;30.27;;;;;;;;;;5026660;28;20417;-89
2022/03/03 09:40:01;;;;;;;49.85;30.85;;;;;;;;;;5031536;28;20411;-89
2022/03/03 09:42:31;;;;;;;49.33;30.65;;;;;;;;;;5029470;28;20439;-87
2022/03/03 09:44:58;;;;;;;48.33;31.20;;;;;;;;;;5034663;28;20413;-90
2022/03/03 09:47:26;;;;;;;46.10;29.98;;;;;;;;;;5026887;28;20415;-91
2022/03/03 09:49:53;;;;;;;48.15;31.40;;;;;;;;;;5027148;28;20405;-90
2022/03/03 09:52:21;;;;;;;46.77;31.17;;;;;;;;;;5036916;28;20449;-90
2022/03/03 09:54:54;;;;;;;47.35;30.23;;;;;;;;;;5031330;28;20422;-90
2022/03/03 09:57:22;;;;;;;47.07;30.47;;;;;;;;;;5029463;28;21025;-88
2022/03/03 09:59:49;;;;;;;49.65;30.30;;;;;;;;;;5029122;28;20409;-91
2022/03/03 10:02:16;;;;;;;49.45;31.17;;;;;;;;;;5027223;28;20423;-90
2022/03/03 10:04:43;;;;;;;48.70;31.73;;;;;;;;;;5027579;28;20416;-89
2022/03/03 10:07:11;;;;;;;53.00;33.17;;;;;;;;;;5032232;28;20405;-90
2022/03/03 10:12:23;;;;;;;49.77;31.53;;;;;;;;;;5025602;28;20392;-88
2022/03/03 10:14:50;;;;;;;47.65;31.30;;;;;;;;;;5029881;28;20409;-90
2022/03/03 10:17:18;;;;;;;49.72;31.52;;;;;;;;;;5030543;28;20770;-88
2022/03/03 10:19:55;;;;;;;48.10;31.13;;;;;;;;;;5031266;28;20413;-88
2022/03/03 10:22:37;;;;;;;50.35;31.90;;;;;;;;;;5043396;28;20676;-89
2022/03/03 10:25:05;;;;;;;47.13;31.83;;;;;;;;;;5051879;28;20400;-89
2022/03/03 10:27:34;;;;;;;46.85;28.92;;;;;;;;;;5048049;28;20524;-90
2022/03/03 10:30:03;;;;;;;44.53;28.60;;;;;;;;;;5029674;28;20924;-89
2022/03/03 10:32:30;;;;;;;44.13;27.80;;;;;;;;;;5029149;28;20496;-88
2022/03/03 10:35:14;;;;;;;44.47;29.08;;;;;;;;;;5028365;28;20483;-90
2022/03/03 10:37:44;;;;;;;45.28;29.48;;;;;;;;;;5029097;28;20402;-89
2022/03/03 10:40:13;;;;;;;45.10;29.20;;;;;;;;;;5033098;28;20400;-90
2022/03/03 10:42:48;;;;;;;47.05;29.30;;;;;;;;;;5036076;28;20399;-90
2022/03/03 10:45:19;;;;;;;45.03;29.08;;;;;;;;;;5030761;28;20536;-86
2022/03/03 10:47:47;;;;;;;46.28;29.95;;;;;;;;;;5033804;28;20411;-90
2022/03/03 10:50:14;;;;;;;44.13;29.55;;;;;;;;;;5025135;28;20427;-89
2022/03/03 10:52:41;;;;;;;43.65;28.77;;;;;;;;;;5035981;28;20399;-89
2022/03/03 10:55:14;;;;;;;44.95;29.27;;;;;;;;;;5028688;28;20416;-89
2022/03/03 10:57:44;;;;;;;44.72;29.30;;;;;;;;;;5046519;28;20416;-90
2022/03/03 11:00:14;;;;;;;41.42;28.60;;;;;;;;;;5031871;28;20420;-88
2022/03/03 11:02:43;;;;;;;46.70;29.30;;;;;;;;;;5032736;28;20415;-85
2022/03/03 11:05:12;;;;;;;45.33;28.45;;;;;;;;;;5034253;28;20418;-85
2022/03/03 11:07:41;;;;;;;44.97;29.48;;;;;;;;;;5031721;28;20422;-86
2022/03/03 11:10:09;;;;;;;43.40;28.60;;;;;;;;;;5030500;28;20446;-87
2022/03/03 11:12:36;;;;;;;45.03;29.52;;;;;;;;;;5028366;28;20449;-86
2022/03/03 11:15:06;;;;;;;45.47;29.10;;;;;;;;;;5032290;28;20412;-86
2022/03/03 11:17:33;;;;;;;45.53;29.73;;;;;;;;;;5032298;28;20515;-85
2022/03/03 11:20:01;;;;;;;44.17;29.35;;;;;;;;;;5030217;28;20431;-88
2022/03/03 11:22:28;;;;;;;43.00;28.67;;;;;;;;;;5032393;28;20439;-86
2022/03/03 11:24:59;;;;;;;44.15;29.45;;;;;;;;;;5035437;28;20411;-87
2022/03/03 11:27:33;;;;;;;48.95;30.85;;;;;;;;;;5043696;28;20408;-88
2022/03/03 11:30:17;;;;;;;49.80;31.40;;;;;;;;;;5029899;28;20820;-89
2022/03/03 11:32:45;;;;;;;49.60;31.42;;;;;;;;;;5028976;28;20454;-91
2022/03/03 11:35:15;;;;;;;49.35;31.40;;;;;;;;;;5028908;28;20400;-90
2022/03/03 11:37:44;;;;;;;47.88;31.00;;;;;;;;;;5029533;28;20502;-91
2022/03/03 11:40:13;;;;;;;48.28;32.20;;;;;;;;;;5029130;28;20425;-88
2022/03/03 11:42:48;;;;;;;45.03;30.42;;;;;;;;;;5028900;28;20521;-89
2022/03/03 11:45:32;;;;;;;45.53;29.58;;;;;;;;;;5027814;28;25154;-89
2022/03/03 11:48:16;;;;;;;46.60;30.33;;;;;;;;;;5035148;28;25118;-88
2022/03/03 11:50:44;;;;;;;46.85;30.25;;;;;;;;;;5030978;28;25115;-90
2022/03/03 11:53:19;;;;;;;48.15;31.20;;;;;;;;;;5028310;28;20400;-90
2022/03/03 11:56:04;;;;;;;47.65;31.92;;;;;;;;;;5035330;28;20417;-91
2022/03/03 11:58:34;;;;;;;42.65;29.60;;;;;;;;;;5031059;28;25119;-90
2022/03/03 12:01:13;;;;;;;43.22;28.38;;;;;;;;;;5028130;28;20440;-90
2022/03/03 12:04:07;;;;;;;45.47;29.65;;;;;;;;;;5027989;28;20420;-90
2022/03/03 12:06:39;;;;;;;44.78;29.75;;;;;;;;;;5015608;28;20410;-90
2022/03/03 12:09:24;;;;;;;42.20;28.92;;;;;;;;;;5029704;28;20435;-90
2022/03/03 12:12:07;;;;;;;45.25;30.20;;;;;;;;;;5028761;28;20509;-88
2022/03/03 12:14:39;;;;;;;43.92;29.67;;;;;;;;;;5029197;28;20762;-89
2022/03/03 12:17:56;;;;;;;41.70;29.03;;;;;;;;;;5026952;28;20412;-88
2022/03/03 12:20:37;;;;;;;46.75;29.58;;;;;;;;;;4958935;28;25175;-89
2022/03/03 12:23:10;;;;;;;44.47;29.98;;;;;;;;;;5027739;28;20421;-89
2022/03/03 12:26:02;;;;;;;44.53;30.77;;;;;;;;;;5021248;28;20931;-88
2022/03/03 12:28:39;;;;;;;47.35;31.92;;;;;;;;;;5027171;28;20421;-81
2022/03/03 12:31:20;;;;;;;48.28;32.75;;;;;;;;;;5028524;28;20411;-89
2022/03/03 12:34:06;;;;;;;44.55;31.02;;;;;;;;;;5027875;28;20420;-89
2022/03/03 12:36:34;;;;;;;48.47;33.28;;;;;;;;;;5025315;28;20483;-88
2022/03/03 12:39:01;;;;;;;46.35;31.75;;;;;;;;;;5026190;28;20487;-87
2022/03/03 12:41:29;;;;;;;50.08;31.83;;;;;;;;;;5024507;28;20409;-89
2022/03/03 12:44:04;;;;;;;47.07;31.77;;;;;;;;;;5032270;28;20417;-88
2022/03/03 12:46:33;;;;;;;48.08;31.42;;;;;;;;;;5026528;28;20405;-89
2022/03/03 12:49:03;;;;;;;46.60;32.10;;;;;;;;;;5028701;28;20436;-88
2022/03/03 12:51:31;;;;;;;48.92;31.50;;;;;;;;;;5029073;28;20420;-89
2022/03/03 12:53:58;;;;;;;46.15;30.50;;;;;;;;;;5028924;28;20409;-86
2022/03/03 12:56:28;;;;;;;47.63;32.97;;;;;;;;;;5026238;28;20433;-87
2022/03/03 12:58:55;;;;;;;44.42;31.60;;;;;;;;;;5027960;28;20818;-91
2022/03/03 13:01:23;;;;;;;46.25;31.52;;;;;;;;;;5027950;28;20928;-89
2022/03/03 13:03:51;;;;;;;106.30;53.95;;;;;;;;;;5024300;28;20417;-89
2022/03/03 13:06:21;;;;;;;51.58;33.78;;;;;;;;;;5025570;28;20429;-91
2022/03/03 13:08:57;;;;;;;43.08;29.88;;;;;;;;;;5022713;28;20405;-89
2022/03/03 13:11:24;;;;;;;45.17;30.35;;;;;;;;;;5024422;28;20695;-90
2022/03/03 13:13:54;;;;;;;46.25;29.98;;;;;;;;;;5025697;28;20401;-90
2022/03/03 13:16:24;;;;;;;52.45;35.92;;;;;;;;;;5026220;28;20428;-90
2022/03/03 13:18:51;;;;;;;44.15;31.50;;;;;;;;;;5025423;28;20421;-88
2022/03/03 13:21:23;;;;;;;46.17;31.27;;;;;;;;;;5026175;28;20413;-91
2022/03/03 13:23:54;;;;;;;43.75;30.95;;;;;;;;;;5025178;28;20468;-90
2022/03/03 13:26:23;;;;;;;43.97;31.88;;;;;;;;;;5024405;28;20417;-91
2022/03/03 13:28:52;;;;;;;47.15;32.67;;;;;;;;;;5024727;28;20415;-89
2022/03/03 13:31:21;;;;;;;48.20;33.78;;;;;;;;;;5025543;28;20413;-89
2022/03/03 13:33:52;;;;;;;47.70;33.00;;;;;;;;;;5023324;28;20413;-87
2022/03/03 13:36:22;;;;;;;44.05;32.83;;;;;;;;;;5023103;28;20759;-87
2022/03/03 13:38:51;;;;;;;47.17;32.70;;;;;;;;;;5022235;28;20429;-87
2022/03/03 13:41:33;;;;;;;46.05;34.10;;;;;;;;;;5024586;28;20427;-90
2022/03/03 13:44:13;;;;;;;46.78;33.83;;;;;;;;;;5023578;28;20564;-87
2022/03/03 13:46:41;;;;;;;46.97;34.78;;;;;;;;;;5023476;28;20417;-87
2022/03/03 13:49:20;;;;;;;47.40;34.22;;;;;;;;;;5026486;28;20893;-87
2022/03/03 13:52:15;;;;;;;46.00;34.45;;;;;;;;;;5024976;28;20429;-87
2022/03/03 13:54:44;;;;;;;49.38;36.08;;;;;;;;;;5024544;28;20423;-88
2022/03/03 13:57:44;;;;;;;49.80;36.45;;;;;;;;;;5026861;28;20855;-91
2022/03/03 14:00:24;;;;;;;44.63;34.97;;;;;;;;;;5023598;28;20409;-90
2022/03/03 14:03:00;;;;;;;49.03;34.10;;;;;;;;;;5025438;28;20420;-90
2022/03/03 14:05:50;;;;;;;46.60;35.40;;;;;;;;;;5022619;28;20502;-90
2022/03/03 14:08:24;;;;;;;49.25;35.25;;;;;;;;;;5020673;28;20488;-90
2022/03/03 14:10:54;;;;;;;45.63;35.38;;;;;;;;;;5024187;28;20424;-89
2022/03/03 14:13:22;;;;;;;47.00;35.72;;;;;;;;;;5026324;28;20413;-89
2022/03/03 14:15:50;;;;;;;46.10;35.30;;;;;;;;;;5028777;28;20425;-88
2022/03/03 14:18:20;;;;;;;47.83;36.30;;;;;;;;;;5029038;28;20515;-87
2022/03/03 14:20:48;;;;;;;49.93;34.73;;;;;;;;;;5027802;28;20431;-88
2022/03/03 14:23:15;;;;;;;47.53;35.92;;;;;;;;;;5028684;28;20423;-88
2022/03/03 14:25:44;;;;;;;47.88;35.58;;;;;;;;;;5029176;28;20399;-87
2022/03/03 14:28:11;;;;;;;49.17;37.10;;;;;;;;;;5027893;28;20413;-88
2022/03/03 14:30:37;;;;;;;44.95;35.00;;;;;;;;;;5030622;28;20405;-88
2022/03/03 14:33:04;;;;;;;49.47;36.60;;;;;;;;;;5032020;28;20409;-88